Time;durP1;ratioP1;P1;durP2;ratioP2;P2;SDS_P1;SDS_P2;PMS_P1;PMS_P2;Temp;Humidity;BMP_temperature;BMP_pressure;BME280_temperature;BME280_humidity;BME280_pressure;Samples;Min_cycle;Max_cycle;Signal;HPM_P1;HPM_P2
2020/12/29 00:00:14;;;;;;;6.83;4.37;;;;;;;-1.52;100.00;92667.75;1033987;28;20033;-70
2020/12/29 00:00:49;;;;;;;7.17;5.40;;;;;;;-1.56;100.00;92664.19;1034881;28;20030;-69
2020/12/29 00:01:39;;;;;;;6.72;4.63;;;;;;;-1.54;100.00;92674.97;1032366;28;20483;-70
2020/12/29 00:02:10;;;;;;;6.18;4.72;;;;;;;-1.54;100.00;92680.09;1038241;28;20033;-72
2020/12/29 00:02:41;;;;;;;6.33;5.00;;;;;;;-1.81;100.00;92637.56;1037987;28;20033;-72
2020/12/29 00:03:11;;;;;;;5.40;4.80;;;;;;;-1.55;100.00;92670.84;1035674;28;20039;-69
2020/12/29 00:03:41;;;;;;;6.13;4.30;;;;;;;-1.56;100.00;92664.94;1039122;28;20690;-71
2020/12/29 00:04:20;;;;;;;5.17;4.53;;;;;;;-1.55;100.00;92671.63;1042968;28;20021;-69
2020/12/29 00:04:50;;;;;;;6.43;4.95;;;;;;;-1.60;100.00;92663.19;1044582;28;20415;-69
2020/12/29 00:05:21;;;;;;;8.57;5.53;;;;;;;-1.61;100.00;92664.19;1044666;28;20063;-68
2020/12/29 00:05:51;;;;;;;7.70;5.30;;;;;;;-1.59;100.00;92664.72;1040461;28;20046;-72
2020/12/29 00:06:22;;;;;;;7.03;5.37;;;;;;;-1.53;100.00;92681.66;1038951;28;20512;-71
2020/12/29 00:06:54;;;;;;;5.73;5.03;;;;;;;-1.59;100.00;92664.72;1037846;28;20088;-68
2020/12/29 00:07:24;;;;;;;6.97;5.25;;;;;;;-1.51;100.00;92671.88;1032224;28;20038;-71
2020/12/29 00:07:55;;;;;;;6.57;4.67;;;;;;;-1.52;100.00;92671.09;1039207;28;20032;-68
2020/12/29 00:08:26;;;;;;;6.13;4.47;;;;;;;-1.67;100.00;92648.03;1030994;28;20099;-73
2020/12/29 00:08:57;;;;;;;7.78;4.63;;;;;;;-1.47;100.00;92683.19;1030238;28;20452;-68
2020/12/29 00:09:27;;;;;;;5.80;4.30;;;;;;;-1.46;100.00;92677.00;1030968;28;20030;-72
2020/12/29 00:09:58;;;;;;;4.93;4.43;;;;;;;-1.46;100.00;92677.75;1030273;28;20046;-70
2020/12/29 00:10:28;;;;;;;5.87;3.70;;;;;;;-1.46;100.00;92685.47;1035629;28;20489;-72
2020/12/29 00:10:59;;;;;;;5.57;4.20;;;;;;;-1.44;100.00;92683.44;1043945;28;20155;-69
2020/12/29 00:11:30;;;;;;;5.53;4.53;;;;;;;-1.47;100.00;92678.81;1041426;28;20022;-73
2020/12/29 00:12:00;;;;;;;5.80;4.50;;;;;;;-1.43;100.00;92679.81;1047104;28;20122;-69
2020/12/29 00:12:31;;;;;;;5.00;4.37;;;;;;;-1.42;100.00;92683.16;1045044;28;20757;-69
2020/12/29 00:13:01;;;;;;;6.73;3.90;;;;;;;-1.41;100.00;92679.53;1039036;28;20029;-70
2020/12/29 00:13:32;;;;;;;4.37;3.40;;;;;;;-1.42;100.00;92678.00;1043598;28;20569;-69
2020/12/29 00:14:02;;;;;;;3.70;3.30;;;;;;;-1.37;100.00;92677.22;1038851;28;20423;-70
2020/12/29 00:14:33;;;;;;;4.00;3.60;;;;;;;-1.36;100.00;92679.53;1039344;28;20033;-68
2020/12/29 00:15:03;;;;;;;4.47;3.37;;;;;;;-1.34;100.00;92680.03;1038774;28;20117;-71
2020/12/29 00:15:38;;;;;;;5.73;3.90;;;;;;;-1.34;100.00;92677.47;1039337;28;20064;-71
2020/12/29 00:16:08;;;;;;;4.30;3.80;;;;;;;-1.33;100.00;92684.16;1045688;28;20021;-68
2020/12/29 00:16:39;;;;;;;5.23;3.97;;;;;;;-1.31;100.00;92682.09;1043493;28;20033;-68
2020/12/29 00:17:09;;;;;;;4.17;3.50;;;;;;;-1.31;100.00;92682.09;1040558;28;20483;-73
2020/12/29 00:17:40;;;;;;;4.27;3.50;;;;;;;-1.29;100.00;92682.56;1043260;28;20130;-70
2020/12/29 00:18:11;;;;;;;4.10;3.50;;;;;;;-1.38;100.00;92666.16;1039015;28;20037;-68
2020/12/29 00:18:42;;;;;;;5.40;3.50;;;;;;;-1.29;100.00;92680.00;1036502;28;20487;-68
2020/12/29 00:19:14;;;;;;;4.22;3.58;;;;;;;-1.29;100.00;92684.38;1039284;28;20033;-68
2020/12/29 00:19:44;;;;;;;5.07;3.10;;;;;;;-1.27;100.00;92687.47;1045397;28;20423;-69
2020/12/29 00:20:15;;;;;;;3.30;3.00;;;;;;;-1.26;100.00;92679.47;1047385;28;20035;-70
2020/12/29 00:20:45;;;;;;;4.40;3.83;;;;;;;-1.31;100.00;92678.72;1044133;28;20568;-69
2020/12/29 00:21:17;;;;;;;5.17;3.70;;;;;;;-1.36;100.00;92678.75;1045822;28;20035;-70
2020/12/29 00:21:47;;;;;;;4.68;3.20;;;;;;;-1.28;100.00;92681.53;1037615;28;20200;-73
2020/12/29 00:22:18;;;;;;;4.10;3.27;;;;;;;-1.24;100.00;92686.91;1034837;28;20029;-71
2020/12/29 00:22:48;;;;;;;4.43;3.33;;;;;;;-1.24;100.00;92694.63;1033624;28;20028;-69
2020/12/29 00:23:19;;;;;;;4.40;3.20;;;;;;;-1.23;100.00;92694.38;1036221;28;20022;-70
2020/12/29 00:23:49;;;;;;;5.27;3.33;;;;;;;-1.24;100.00;92700.56;1038292;28;20013;-70
2020/12/29 00:24:20;;;;;;;4.43;3.30;;;;;;;-1.27;100.00;92688.25;1045101;28;20692;-70
2020/12/29 00:24:51;;;;;;;3.93;3.10;;;;;;;-1.20;100.00;92696.44;1037775;28;20025;-69
2020/12/29 00:25:21;;;;;;;4.57;2.97;;;;;;;-1.17;100.00;92702.84;1039297;28;20775;-71
2020/12/29 00:25:51;;;;;;;5.57;3.80;;;;;;;-1.32;100.00;92680.53;1043316;28;20017;-69
2020/12/29 00:26:25;;;;;;;6.20;3.77;;;;;;;-1.17;100.00;92697.72;1043208;28;20025;-70
2020/12/29 00:26:55;;;;;;;6.05;3.60;;;;;;;-1.11;100.00;92695.88;1042008;28;20060;-69
2020/12/29 00:27:26;;;;;;;5.13;3.27;;;;;;;-1.11;100.00;92698.44;1042824;28;20403;-70
2020/12/29 00:27:56;;;;;;;5.73;3.63;;;;;;;-1.11;100.00;92698.44;1034806;28;20024;-68
2020/12/29 00:28:27;;;;;;;5.07;3.77;;;;;;;-1.10;100.00;92697.44;1030419;28;20460;-72
2020/12/29 00:28:57;;;;;;;5.20;3.70;;;;;;;-1.11;100.00;92693.28;1038230;28;20025;-68
2020/12/29 00:29:28;;;;;;;3.50;3.20;;;;;;;-1.12;100.00;92700.25;1025754;28;20513;-70
2020/12/29 00:29:58;;;;;;;4.73;3.37;;;;;;;-1.16;100.00;92693.34;1035209;28;20092;-70
2020/12/29 00:30:29;;;;;;;4.67;3.10;;;;;;;-1.20;100.00;92687.94;1036318;28;20600;-69
2020/12/29 00:30:59;;;;;;;4.03;3.33;;;;;;;-1.08;100.00;92705.63;1038929;28;20329;-68
2020/12/29 00:31:30;;;;;;;4.93;3.57;;;;;;;-1.09;100.00;92710.00;1051659;28;20028;-69
2020/12/29 00:32:01;;;;;;;6.97;3.20;;;;;;;-1.08;100.00;92695.34;1047145;28;20037;-71
2020/12/29 00:32:31;;;;;;;3.63;2.88;;;;;;;-1.07;100.00;92702.81;1042931;28;20009;-69
2020/12/29 00:33:02;;;;;;;4.43;2.90;;;;;;;-1.06;100.00;92699.19;1043218;28;20056;-70
2020/12/29 00:33:32;;;;;;;4.03;2.60;;;;;;;-1.04;100.00;92698.91;1038985;28;20021;-71
2020/12/29 00:34:03;;;;;;;3.33;3.03;;;;;;;-1.05;100.00;92699.97;1035015;28;20417;-69
2020/12/29 00:34:33;;;;;;;5.33;3.67;;;;;;;-1.06;100.00;92695.84;1042748;28;20025;-68
2020/12/29 00:35:04;;;;;;;4.70;3.23;;;;;;;-1.04;100.00;92701.47;1043284;28;20036;-70
2020/12/29 00:35:34;;;;;;;3.83;2.77;;;;;;;-1.04;100.00;92701.47;1043407;28;20476;-70
2020/12/29 00:36:05;;;;;;;4.00;3.17;;;;;;;-1.06;100.00;92703.56;1046625;28;20142;-69
2020/12/29 00:36:36;;;;;;;4.77;3.17;;;;;;;-1.05;100.00;92707.66;1039249;28;20025;-72
2020/12/29 00:37:06;;;;;;;4.07;2.70;;;;;;;-1.05;100.00;92715.41;1035190;28;20028;-71
2020/12/29 00:37:37;;;;;;;3.67;3.00;;;;;;;-1.05;100.00;92718.72;1037424;28;20061;-68
2020/12/29 00:38:07;;;;;;;6.33;3.47;;;;;;;-1.04;100.00;92712.56;1035332;28;20428;-69
2020/12/29 00:38:37;;;;;;;5.37;3.70;;;;;;;-1.06;100.00;92726.72;1038719;28;20026;-69
2020/12/29 00:39:08;;;;;;;7.17;4.10;;;;;;;-1.05;100.00;92715.41;1042750;28;20033;-69
2020/12/29 00:39:39;;;;;;;6.17;4.00;;;;;;;-1.07;100.00;92718.25;1043605;28;20017;-68
2020/12/29 00:40:09;;;;;;;4.83;3.47;;;;;;;-1.10;100.00;92718.78;1039080;28;20026;-68
2020/12/29 00:40:40;;;;;;;4.47;3.43;;;;;;;-1.11;100.00;92706.16;1043435;28;20539;-68
2020/12/29 00:41:10;;;;;;;5.67;4.07;;;;;;;-1.20;100.00;92693.84;1037557;28;20029;-71
2020/12/29 00:41:41;;;;;;;5.87;3.30;;;;;;;-1.11;100.00;92701.00;1031174;28;20022;-69
2020/12/29 00:42:11;;;;;;;7.90;4.53;;;;;;;-1.12;100.00;92710.53;1030950;28;20033;-69
2020/12/29 00:42:42;;;;;;;5.07;3.20;;;;;;;-1.12;100.00;92705.38;1033287;28;20022;-70
2020/12/29 00:43:13;;;;;;;4.77;3.60;;;;;;;-1.12;100.00;92710.53;1031339;28;20038;-69
2020/12/29 00:43:44;;;;;;;4.33;3.13;;;;;;;-1.17;100.00;92691.78;1039312;28;20392;-68
2020/12/29 00:44:14;;;;;;;5.97;3.10;;;;;;;-1.12;100.00;92699.47;1034969;28;20582;-72
2020/12/29 00:44:45;;;;;;;5.50;3.10;;;;;;;-1.20;100.00;92688.72;1043438;28;20031;-70
2020/12/29 00:45:15;;;;;;;4.23;3.20;;;;;;;-1.14;100.00;92697.19;1035072;28;20030;-69
2020/12/29 00:45:46;;;;;;;4.47;3.40;;;;;;;-1.20;100.00;92681.00;1035225;28;20097;-69
2020/12/29 00:46:18;;;;;;;3.37;2.93;;;;;;;-1.12;100.00;92691.75;1033373;28;20452;-71
2020/12/29 00:46:49;;;;;;;5.03;2.83;;;;;;;-1.12;100.00;92695.09;1027741;28;20019;-68
2020/12/29 00:47:19;;;;;;;4.70;3.03;;;;;;;-1.12;100.00;92692.53;1031073;28;20386;-69
2020/12/29 00:47:50;;;;;;;3.27;2.80;;;;;;;-1.12;100.00;92691.75;1031692;28;20512;-68
2020/12/29 00:48:20;;;;;;;4.70;3.30;;;;;;;-1.13;100.00;92683.28;1035320;28;20030;-71
2020/12/29 00:48:51;;;;;;;4.03;2.80;;;;;;;-1.10;100.00;92689.72;1038635;28;20021;-70
2020/12/29 00:49:21;;;;;;;3.80;2.93;;;;;;;-1.11;100.00;92686.34;1039285;28;20131;-69
2020/12/29 00:49:52;;;;;;;3.93;2.70;;;;;;;-1.17;100.00;92678.91;1039270;28;20017;-69
2020/12/29 00:50:22;;;;;;;3.17;2.50;;;;;;;-1.10;100.00;92693.03;1039009;28;20021;-71
2020/12/29 00:50:53;;;;;;;3.50;2.67;;;;;;;-1.09;100.00;92701.53;1043262;28;20430;-69
2020/12/29 00:51:23;;;;;;;3.00;2.70;;;;;;;-1.09;100.00;92709.25;1043146;28;20025;-67
2020/12/29 00:51:54;;;;;;;3.63;2.87;;;;;;;-1.07;100.00;92707.94;1043619;28;20017;-68
2020/12/29 00:52:25;;;;;;;5.13;3.17;;;;;;;-1.05;100.00;92720.53;1043374;28;20128;-72
2020/12/29 00:52:55;;;;;;;8.30;3.70;;;;;;;-1.13;100.00;92697.94;1038804;28;20025;-71
2020/12/29 00:53:27;;;;;;;7.50;3.53;;;;;;;-1.05;100.00;92715.41;1035129;28;20444;-68
2020/12/29 00:53:58;;;;;;;5.88;3.67;;;;;;;-1.05;100.00;92703.28;1034691;28;20026;-68
2020/12/29 00:54:28;;;;;;;5.97;3.57;;;;;;;-1.03;100.00;92703.03;1031853;28;20026;-69
2020/12/29 00:54:59;;;;;;;6.67;3.23;;;;;;;-1.00;100.00;92699.94;1031096;28;20019;-71
2020/12/29 00:55:29;;;;;;;3.73;2.93;;;;;;;-1.00;100.00;92705.09;1031307;28;20037;-70
2020/12/29 00:56:01;;;;;;;4.50;3.33;;;;;;;-1.01;100.00;92700.97;1031263;28;20034;-69
2020/12/29 00:56:31;;;;;;;3.65;2.53;;;;;;;-1.01;100.00;92703.53;1037533;28;20032;-68
2020/12/29 00:57:02;;;;;;;5.60;3.00;;;;;;;-1.01;100.00;92712.00;1038953;28;20068;-69
2020/12/29 00:57:32;;;;;;;4.03;2.30;;;;;;;-0.99;100.00;92709.19;1039454;28;20017;-68
2020/12/29 00:58:03;;;;;;;3.70;2.37;;;;;;;-0.97;100.00;92707.13;1042893;28;20480;-67
2020/12/29 00:58:33;;;;;;;4.47;2.77;;;;;;;-0.97;100.00;92707.13;1038436;28;20083;-70
2020/12/29 00:59:04;;;;;;;4.30;2.80;;;;;;;-1.02;100.00;92705.34;1042919;28;20392;-68
2020/12/29 00:59:35;;;;;;;4.23;2.57;;;;;;;-0.99;100.00;92709.19;1039061;28;20063;-69
2020/12/29 01:00:05;;;;;;;3.73;2.33;;;;;;;-0.97;100.00;92718.19;1034966;28;20121;-71
2020/12/29 01:00:36;;;;;;;4.10;2.50;;;;;;;-0.93;100.00;92726.16;1035112;28;20397;-70
2020/12/29 01:01:07;;;;;;;5.37;3.43;;;;;;;-0.97;100.00;92720.00;1034807;28;20029;-68
2020/12/29 01:01:38;;;;;;;3.00;2.17;;;;;;;-0.89;100.00;92732.28;1034211;28;20448;-68
2020/12/29 01:02:09;;;;;;;3.80;2.17;;;;;;;-0.88;100.00;92733.81;1039107;28;20041;-69
2020/12/29 01:02:39;;;;;;;3.43;2.73;;;;;;;-0.87;100.00;92717.38;1039221;28;20025;-70
2020/12/29 01:03:10;;;;;;;3.50;2.60;;;;;;;-0.85;100.00;92712.72;1040380;28;20021;-68
2020/12/29 01:03:40;;;;;;;2.60;2.20;;;;;;;-0.82;100.00;92714.75;1039233;28;20041;-69
2020/12/29 01:04:11;;;;;;;3.93;2.40;;;;;;;-0.83;100.00;92720.94;1039256;28;20095;-69
2020/12/29 01:04:41;;;;;;;3.93;2.40;;;;;;;-0.82;100.00;92722.47;1039093;28;20577;-71
2020/12/29 01:05:12;;;;;;;3.63;2.43;;;;;;;-0.83;100.00;92717.59;1039086;28;20026;-70
2020/12/29 01:05:44;;;;;;;2.37;2.00;;;;;;;-0.85;100.00;92717.84;1047410;28;20078;-67
2020/12/29 01:06:14;;;;;;;2.65;2.00;;;;;;;-0.83;100.00;92707.31;1047718;28;20020;-67
2020/12/29 01:06:45;;;;;;;2.63;2.33;;;;;;;-0.82;100.00;92714.75;1044119;28;20060;-68
2020/12/29 01:07:15;;;;;;;2.97;1.90;;;;;;;-0.81;100.00;92710.38;1043448;28;20029;-70
2020/12/29 01:07:46;;;;;;;2.90;2.07;;;;;;;-0.80;100.00;92709.34;1047348;28;20024;-68
2020/12/29 01:08:16;;;;;;;3.07;1.40;;;;;;;-0.93;100.00;92684.22;1046383;28;20029;-73
2020/12/29 01:08:47;;;;;;;3.10;1.90;;;;;;;-0.67;100.00;92720.84;1041827;28;20452;-70
2020/12/29 01:09:17;;;;;;;2.37;1.93;;;;;;;-0.67;100.00;92713.91;1038850;28;20034;-68
2020/12/29 01:09:48;;;;;;;2.80;2.20;;;;;;;-0.67;100.00;92713.13;1030875;28;20038;-70
2020/12/29 01:10:18;;;;;;;2.73;1.90;;;;;;;-0.66;100.00;92712.88;1031063;28;20053;-68
2020/12/29 01:10:51;;;;;;;2.73;1.87;;;;;;;-0.66;100.00;92706.94;1035250;28;20030;-71
2020/12/29 01:11:22;;;;;;;3.30;2.20;;;;;;;-0.71;100.00;92705.16;1031363;28;20334;-68
2020/12/29 01:11:52;;;;;;;3.07;1.90;;;;;;;-0.65;100.00;92705.91;1030570;28;20548;-70
2020/12/29 01:12:22;;;;;;;2.53;1.90;;;;;;;-0.65;100.00;92713.63;1031086;28;20038;-68
2020/12/29 01:12:53;;;;;;;2.40;2.10;;;;;;;-0.67;100.00;92725.97;1031222;28;20022;-70
2020/12/29 01:13:23;;;;;;;2.90;1.93;;;;;;;-0.65;100.00;92734.22;1030546;28;20041;-70
2020/12/29 01:13:54;;;;;;;3.23;1.73;;;;;;;-0.66;100.00;92736.03;1039316;28;20407;-72
2020/12/29 01:14:24;;;;;;;3.10;2.10;;;;;;;-0.65;100.00;92724.69;1039119;28;20037;-68
2020/12/29 01:14:58;;;;;;;2.65;2.25;;;;;;;-0.66;100.00;92717.25;1027144;28;20031;-69
2020/12/29 01:15:28;;;;;;;3.33;2.07;;;;;;;-0.68;100.00;92724.47;1026367;28;20034;-70
2020/12/29 01:15:59;;;;;;;4.50;2.47;;;;;;;-0.69;100.00;92738.38;1027936;28;20123;-68
2020/12/29 01:16:29;;;;;;;2.83;2.00;;;;;;;-0.68;100.00;92729.59;1027985;28;20482;-69
2020/12/29 01:17:00;;;;;;;4.17;2.00;;;;;;;-0.67;100.00;92731.13;1040524;28;20032;-70
2020/12/29 01:17:30;;;;;;;3.10;2.20;;;;;;;-0.65;100.00;92729.06;1042971;28;20037;-69
2020/12/29 01:18:00;;;;;;;2.87;1.70;;;;;;;-0.71;100.00;92718.78;1039100;28;20025;-71
2020/12/29 01:18:31;;;;;;;1.87;1.60;;;;;;;-0.60;100.00;92734.22;1039643;28;20303;-68
2020/12/29 01:19:01;;;;;;;3.80;1.97;;;;;;;-0.58;100.00;92726.97;1034866;28;20021;-68
2020/12/29 01:19:32;;;;;;;2.37;1.80;;;;;;;-0.58;100.00;92721.81;1034867;28;20481;-70
2020/12/29 01:20:03;;;;;;;2.70;1.70;;;;;;;-0.58;100.00;92716.66;1035083;28;20504;-69
2020/12/29 01:20:33;;;;;;;2.53;1.87;;;;;;;-0.59;100.00;92707.41;1043120;28;20035;-68
2020/12/29 01:21:04;;;;;;;1.80;1.60;;;;;;;-0.62;100.00;92707.94;1043322;28;20029;-71
2020/12/29 01:21:34;;;;;;;2.43;1.77;;;;;;;-0.61;100.00;92714.63;1039103;28;20025;-69
2020/12/29 01:22:05;;;;;;;2.87;1.83;;;;;;;-0.65;100.00;92718.78;1037492;28;20450;-68
2020/12/29 01:22:35;;;;;;;3.27;1.77;;;;;;;-0.61;100.00;92717.19;1035015;28;20026;-68
2020/12/29 01:23:06;;;;;;;3.00;2.00;;;;;;;-0.62;100.00;92708.72;1035107;28;20033;-69
2020/12/29 01:23:36;;;;;;;2.60;1.83;;;;;;;-0.61;100.00;92704.31;1040415;28;20400;-67
2020/12/29 01:24:07;;;;;;;2.03;1.73;;;;;;;-0.61;100.00;92715.38;1043108;28;20051;-70
2020/12/29 01:24:37;;;;;;;2.80;2.03;;;;;;;-0.60;100.00;92723.91;1047306;28;20056;-72
2020/12/29 01:25:08;;;;;;;2.30;1.57;;;;;;;-0.60;100.00;92718.75;1047030;28;20028;-70
2020/12/29 01:25:41;;;;;;;2.63;1.70;;;;;;;-0.60;100.00;92718.75;1046834;28;20021;-68
2020/12/29 01:26:19;;;;;;;2.97;2.00;;;;;;;-0.59;100.00;92715.13;1038737;28;20033;-70
2020/12/29 01:26:50;;;;;;;2.15;1.60;;;;;;;-0.60;100.00;92714.38;1030802;28;20442;-70
2020/12/29 01:27:20;;;;;;;1.77;1.63;;;;;;;-0.58;100.00;92706.38;1030940;28;20037;-70
2020/12/29 01:27:51;;;;;;;2.00;1.80;;;;;;;-0.57;100.00;92713.03;1027858;28;20049;-69
2020/12/29 01:28:21;;;;;;;2.23;1.63;;;;;;;-0.59;100.00;92720.28;1030601;28;20026;-68
2020/12/29 01:28:55;;;;;;;3.03;1.73;;;;;;;-0.57;100.00;92713.03;1030146;28;20056;-71
2020/12/29 01:29:25;;;;;;;2.65;2.00;;;;;;;-0.58;100.00;92716.66;1031121;28;20225;-71
2020/12/29 01:29:56;;;;;;;2.17;1.63;;;;;;;-0.58;100.00;92719.25;1036093;28;20061;-71
2020/12/29 01:30:26;;;;;;;1.97;1.50;;;;;;;-0.59;100.00;92720.28;1043328;28;20116;-68
2020/12/29 01:30:57;;;;;;;2.37;1.90;;;;;;;-0.59;100.00;92728.00;1043213;28;20028;-68
2020/12/29 01:31:28;;;;;;;3.20;2.13;;;;;;;-0.61;100.00;92705.09;1039122;28;20131;-69
2020/12/29 01:31:59;;;;;;;2.72;1.83;;;;;;;-0.61;100.00;92704.31;1039113;28;20442;-68
2020/12/29 01:32:30;;;;;;;2.27;1.83;;;;;;;-0.61;100.00;92710.25;1034598;28;20267;-69
2020/12/29 01:33:00;;;;;;;2.40;1.80;;;;;;;-0.60;100.00;92716.19;1039180;28;20029;-70
2020/12/29 01:33:31;;;;;;;2.10;1.60;;;;;;;-0.59;100.00;92715.13;1040454;28;20029;-68
2020/12/29 01:34:02;;;;;;;2.20;1.60;;;;;;;-0.60;100.00;92695.59;1039068;28;20068;-72
2020/12/29 01:34:32;;;;;;;1.90;1.53;;;;;;;-0.60;100.00;92706.66;1038966;28;20017;-72
2020/12/29 01:35:03;;;;;;;2.70;1.80;;;;;;;-0.61;100.00;92704.31;1039101;28;20088;-68
2020/12/29 01:35:34;;;;;;;2.17;1.60;;;;;;;-0.61;100.00;92706.91;1042888;28;20032;-70
2020/12/29 01:36:05;;;;;;;2.77;1.73;;;;;;;-0.61;100.00;92717.19;1047140;28;20384;-70
2020/12/29 01:36:35;;;;;;;2.13;1.67;;;;;;;-0.61;100.00;92717.19;1038658;28;20034;-70
2020/12/29 01:37:06;;;;;;;1.77;1.67;;;;;;;-0.61;100.00;92727.50;1039008;28;20416;-68
2020/12/29 01:37:36;;;;;;;1.93;1.67;;;;;;;-0.65;100.00;92716.97;1042502;28;20029;-68
2020/12/29 01:38:07;;;;;;;1.60;1.50;;;;;;;-0.61;100.00;92715.38;1030912;28;20022;-70
2020/12/29 01:38:37;;;;;;;2.30;2.00;;;;;;;-0.61;100.00;92706.91;1038109;28;20257;-69
2020/12/29 01:39:08;;;;;;;1.90;1.50;;;;;;;-0.61;100.00;92714.63;1034270;28;20500;-70
2020/12/29 01:39:38;;;;;;;2.83;1.83;;;;;;;-0.61;100.00;92719.78;1035047;28;20018;-69
2020/12/29 01:40:09;;;;;;;1.93;1.67;;;;;;;-0.70;100.00;92711.88;1038837;28;20014;-70
2020/12/29 01:40:41;;;;;;;1.63;1.50;;;;;;;-0.62;100.00;92715.66;1031298;28;20500;-70
2020/12/29 01:41:11;;;;;;;2.10;1.90;;;;;;;-0.62;100.00;92713.84;1039040;28;20018;-69
2020/12/29 01:41:42;;;;;;;2.53;1.67;;;;;;;-0.62;100.00;92718.25;1038906;28;20899;-71
2020/12/29 01:42:12;;;;;;;2.00;1.67;;;;;;;-0.64;100.00;92710.00;1039498;28;20025;-70
2020/12/29 01:42:45;;;;;;;2.47;1.80;;;;;;;-0.65;100.00;92703.31;1038655;28;20052;-68
2020/12/29 01:43:15;;;;;;;2.92;1.80;;;;;;;-0.62;100.00;92707.94;1034936;28;20049;-70
2020/12/29 01:43:46;;;;;;;2.27;1.80;;;;;;;-0.69;100.00;92697.94;1030834;28;20073;-70
2020/12/29 01:44:18;;;;;;;1.83;1.60;;;;;;;-0.60;100.00;92703.31;1030948;28;20018;-70
2020/12/29 01:44:49;;;;;;;2.63;1.90;;;;;;;-0.61;100.00;92719.78;1035148;28;20041;-69
2020/12/29 01:45:20;;;;;;;2.43;1.63;;;;;;;-0.61;100.00;92710.25;1039477;28;20480;-69
2020/12/29 01:45:51;;;;;;;2.97;1.98;;;;;;;-0.61;100.00;92704.31;1036155;28;20042;-71
2020/12/29 01:46:21;;;;;;;1.67;1.43;;;;;;;-0.63;100.00;92696.13;1034956;28;20456;-68
2020/12/29 01:46:52;;;;;;;2.23;1.63;;;;;;;-0.65;100.00;92698.19;1035828;28;20029;-71
2020/12/29 01:47:22;;;;;;;3.20;1.30;;;;;;;-0.58;100.00;92724.38;1034704;28;20060;-70
2020/12/29 01:47:53;;;;;;;1.87;1.47;;;;;;;-0.59;100.00;92722.84;1034945;28;20057;-72
2020/12/29 01:48:25;;;;;;;3.20;1.63;;;;;;;-0.57;100.00;92710.47;1034727;28;20033;-67
2020/12/29 01:48:56;;;;;;;1.90;1.50;;;;;;;-0.55;100.00;92698.09;1034261;28;20017;-68
2020/12/29 01:49:26;;;;;;;3.03;1.77;;;;;;;-0.56;99.94;92702.50;1030921;28;20042;-71
2020/12/29 01:49:57;;;;;;;1.90;1.70;;;;;;;-0.54;99.86;92713.31;1035222;28;20080;-70
2020/12/29 01:50:27;;;;;;;2.93;1.43;;;;;;;-0.55;100.00;92716.13;1033206;28;20026;-68
2020/12/29 01:50:58;;;;;;;1.77;1.50;;;;;;;-0.55;100.00;92721.28;1034764;28;20026;-69
2020/12/29 01:51:29;;;;;;;2.33;1.67;;;;;;;-0.58;100.00;92714.09;1038871;28;20017;-70
2020/12/29 01:51:59;;;;;;;1.93;1.50;;;;;;;-0.56;100.00;92730.81;1036239;28;20501;-68
2020/12/29 01:52:31;;;;;;;4.03;1.80;;;;;;;-0.56;100.00;92728.25;1042895;28;20104;-69
2020/12/29 01:53:02;;;;;;;2.53;1.75;;;;;;;-0.54;99.89;92715.09;1042851;28;20072;-69
2020/12/29 01:53:33;;;;;;;1.43;1.20;;;;;;;-0.51;99.42;92675.94;1042854;28;20043;-68
2020/12/29 01:54:04;;;;;;;1.40;1.13;;;;;;;-0.44;98.69;92685.91;1047147;28;20507;-68
2020/12/29 01:54:35;;;;;;;1.80;1.10;;;;;;;-0.20;96.20;92720.28;1038876;28;20046;-72
2020/12/29 01:55:07;;;;;;;0.93;0.70;;;;;;;0.00;93.38;92734.78;1030598;28;20489;-70
2020/12/29 01:55:37;;;;;;;1.40;0.90;;;;;;;-0.04;93.22;92713.91;1026406;28;20118;-71
2020/12/29 01:56:09;;;;;;;2.20;1.57;;;;;;;0.08;93.18;92715.38;1030966;28;20033;-70
2020/12/29 01:56:40;;;;;;;1.15;1.02;;;;;;;0.05;94.15;92710.78;1035780;28;20204;-68
2020/12/29 01:57:11;;;;;;;2.00;1.30;;;;;;;0.02;94.44;92711.31;1036206;28;20033;-69
2020/12/29 01:57:41;;;;;;;1.70;1.50;;;;;;;-0.02;94.92;92721.41;1029996;28;20038;-68
2020/12/29 01:58:12;;;;;;;2.17;1.47;;;;;;;-0.01;95.74;92720.34;1030801;28;20608;-69
2020/12/29 01:58:42;;;;;;;1.57;1.27;;;;;;;-0.11;95.69;92699.81;1033226;28;20030;-68
2020/12/29 01:59:13;;;;;;;1.93;1.30;;;;;;;-0.13;95.65;92707.06;1034514;28;20423;-72
2020/12/29 01:59:43;;;;;;;4.67;1.93;;;;;;;-0.04;95.21;92731.19;1038541;28;20515;-71
2020/12/29 02:00:14;;;;;;;1.67;1.13;;;;;;;-0.06;94.49;92710.09;1035176;28;20034;-69
2020/12/29 02:00:45;;;;;;;2.40;1.37;;;;;;;-0.03;94.29;92701.84;1034321;28;20071;-68
2020/12/29 02:01:16;;;;;;;0.80;0.50;;;;;;;0.48;90.21;92714.22;1034637;28;20789;-70
2020/12/29 02:01:46;;;;;;;1.33;0.63;;;;;;;0.63;87.85;92726.16;1034646;28;20030;-71
2020/12/29 02:02:17;;;;;;;1.20;0.87;;;;;;;0.76;86.88;92735.06;1036416;28;20543;-69
2020/12/29 02:02:47;;;;;;;0.93;0.50;;;;;;;0.90;84.62;92725.59;1030834;28;20477;-70
2020/12/29 02:03:18;;;;;;;1.17;0.60;;;;;;;1.05;83.75;92727.25;1030707;28;20023;-71
2020/12/29 02:03:48;;;;;;;1.77;0.97;;;;;;;1.05;83.47;92722.09;1031043;28;20540;-68
2020/12/29 02:04:19;;;;;;;0.57;0.50;;;;;;;1.12;84.35;92732.84;1038969;28;20109;-71
2020/12/29 02:04:49;;;;;;;0.80;0.70;;;;;;;1.08;84.43;92727.47;1030884;28;20026;-70
2020/12/29 02:05:20;;;;;;;1.20;0.73;;;;;;;1.04;85.04;92726.47;1030842;28;20561;-71
2020/12/29 02:05:50;;;;;;;1.07;0.80;;;;;;;1.04;85.90;92736.81;1030169;28;20029;-68
2020/12/29 02:06:21;;;;;;;0.97;0.97;;;;;;;0.98;86.71;92742.31;1034742;28;20026;-71
2020/12/29 02:06:51;;;;;;;1.43;0.80;;;;;;;0.84;87.43;92732.66;1030929;28;20029;-69
2020/12/29 02:07:21;;;;;;;1.37;0.90;;;;;;;0.83;88.03;92741.41;1028136;28;20019;-70
2020/12/29 02:07:52;;;;;;;2.07;1.10;;;;;;;0.73;88.57;92740.78;1038226;28;20017;-70
2020/12/29 02:08:23;;;;;;;0.87;0.87;;;;;;;0.68;89.26;92739.03;1031781;28;20080;-68
2020/12/29 02:08:53;;;;;;;1.27;1.10;;;;;;;0.65;89.90;92748.06;1033240;28;20018;-69
2020/12/29 02:09:23;;;;;;;1.17;0.90;;;;;;;0.61;90.66;92747.09;1030472;28;20038;-73
2020/12/29 02:09:54;;;;;;;1.10;1.00;;;;;;;0.50;90.24;92727.59;1030574;28;20549;-70
2020/12/29 02:10:25;;;;;;;2.50;1.17;;;;;;;0.51;90.59;92752.38;1030847;28;20121;-70
2020/12/29 02:10:55;;;;;;;1.47;1.07;;;;;;;0.41;91.29;92744.72;1026526;28;20057;-72
2020/12/29 02:11:26;;;;;;;1.40;1.00;;;;;;;0.43;91.50;92755.53;1030761;28;20581;-69
2020/12/29 02:11:56;;;;;;;1.67;0.90;;;;;;;0.41;91.88;92760.19;1030422;28;20561;-68
2020/12/29 02:12:33;;;;;;;1.20;1.10;;;;;;;0.39;91.47;92763.03;1028162;28;20027;-69
2020/12/29 02:13:03;;;;;;;1.35;1.00;;;;;;;0.37;91.65;92764.34;1035628;28;20029;-72
2020/12/29 02:13:40;;;;;;;2.13;1.10;;;;;;;0.31;92.20;92771.38;1039762;28;20022;-71
2020/12/29 02:14:11;;;;;;;1.65;1.38;;;;;;;0.24;92.49;92765.78;1044242;28;20033;-70
2020/12/29 02:14:41;;;;;;;1.37;1.20;;;;;;;0.28;92.43;92768.56;1041558;28;20036;-69
2020/12/29 02:15:12;;;;;;;1.20;1.10;;;;;;;0.24;92.64;92765.78;1034762;28;20021;-71
2020/12/29 02:15:42;;;;;;;1.47;1.20;;;;;;;0.22;92.44;92773.75;1035071;28;20408;-70
2020/12/29 02:16:12;;;;;;;1.10;1.00;;;;;;;0.20;92.68;92769.91;1038478;28;20035;-68
2020/12/29 02:16:43;;;;;;;1.83;1.40;;;;;;;0.21;92.74;92771.47;1038665;28;20033;-71
2020/12/29 02:17:13;;;;;;;1.83;1.23;;;;;;;0.18;92.75;92772.78;1038983;28;20052;-73
2020/12/29 02:17:44;;;;;;;2.90;1.17;;;;;;;0.20;92.69;92775.06;1039372;28;20028;-71
2020/12/29 02:18:15;;;;;;;1.30;1.20;;;;;;;0.18;93.35;92772.00;1036957;28;20037;-71
2020/12/29 02:18:45;;;;;;;1.17;1.07;;;;;;;0.11;93.38;92768.97;1038278;28;20508;-71
2020/12/29 02:19:15;;;;;;;2.37;1.30;;;;;;;0.15;93.99;92778.47;1036034;28;20042;-75
2020/12/29 02:19:46;;;;;;;1.40;1.27;;;;;;;0.15;93.37;92775.88;1038874;28;20063;-70
2020/12/29 02:20:17;;;;;;;2.50;1.40;;;;;;;0.15;93.29;92778.47;1042740;28;20104;-68
2020/12/29 02:20:47;;;;;;;1.30;0.90;;;;;;;0.11;93.38;92771.56;1039182;28;20052;-71
2020/12/29 02:21:18;;;;;;;2.33;1.17;;;;;;;0.17;93.20;92781.56;1039993;28;20041;-71
2020/12/29 02:21:48;;;;;;;2.03;1.07;;;;;;;0.15;93.39;92780.28;1038844;28;20025;-71
2020/12/29 02:22:20;;;;;;;1.67;1.10;;;;;;;0.16;93.04;92785.16;1026602;28;20086;-68
2020/12/29 02:22:50;;;;;;;1.63;1.25;;;;;;;0.15;92.93;92785.44;1029638;28;20108;-70
2020/12/29 02:23:20;;;;;;;1.50;1.10;;;;;;;0.13;93.91;92777.19;1034797;28;20124;-70
2020/12/29 02:23:51;;;;;;;1.70;1.43;;;;;;;0.10;93.93;92781.09;1031012;28;20034;-68
2020/12/29 02:24:21;;;;;;;1.73;1.00;;;;;;;0.09;94.46;92769.22;1040843;28;20396;-69